createdAt,value
2023-03-07T00:02:18.301Z,92922.50
2023-03-07T00:07:21.349Z,92948.88
2023-03-07T00:12:25.227Z,92950.06
2023-03-07T00:17:28.213Z,92936.44
2023-03-07T00:22:31.986Z,92927.44
2023-03-07T00:27:35.205Z,92957.00
2023-03-07T00:32:38.771Z,92951.16
2023-03-07T00:37:41.946Z,92950.00
2023-03-07T00:42:44.833Z,92949.28
2023-03-07T00:47:47.770Z,92934.78
2023-03-07T00:52:50.811Z,92928.94
2023-03-07T00:57:54.185Z,92925.41
2023-03-07T01:03:02.394Z,92914.66
2023-03-07T01:08:05.422Z,92918.50
2023-03-07T01:13:10.158Z,92920.81
2023-03-07T01:18:13.271Z,92914.16
2023-03-07T01:23:16.507Z,92897.47
2023-03-07T01:28:19.606Z,92894.34
2023-03-07T01:33:22.885Z,92894.31
2023-03-07T01:38:28.484Z,92891.19
2023-03-07T01:43:34.658Z,92878.03
2023-03-07T01:48:45.011Z,92876.09
2023-03-07T01:53:51.406Z,92871.06
2023-03-07T01:58:56.100Z,92863.66
2023-03-07T02:04:01.689Z,92848.00
2023-03-07T02:09:13.576Z,92852.41
2023-03-07T02:14:16.658Z,92856.63
2023-03-07T02:19:24.797Z,92865.56
2023-03-07T02:24:42.967Z,92876.81
2023-03-07T02:29:46.433Z,92875.97
2023-03-07T02:34:50.540Z,92867.50
2023-03-07T02:39:59.091Z,92857.00
2023-03-07T02:45:07.484Z,92850.00
2023-03-07T02:50:14.090Z,92848.13
2023-03-07T02:55:20.944Z,92863.63
2023-03-07T03:00:37.551Z,92855.44
2023-03-07T03:05:41.239Z,92846.84
2023-03-07T03:10:44.397Z,92843.69
2023-03-07T03:15:50.077Z,92842.16
2023-03-07T03:20:54.028Z,92826.19
2023-03-07T03:26:02.579Z,92831.19
2023-03-07T03:31:10.648Z,92814.34
2023-03-07T03:36:17.564Z,92859.81
2023-03-07T03:41:25.053Z,92851.84
2023-03-07T03:46:28.369Z,92865.56
2023-03-07T03:51:32.046Z,92859.09
2023-03-07T03:56:35.531Z,92863.06
2023-03-07T04:01:38.856Z,92874.19
2023-03-07T04:06:43.257Z,92870.84
2023-03-07T04:11:49.581Z,92855.16
2023-03-07T04:16:53.819Z,92861.81
2023-03-07T04:21:57.766Z,92855.28
2023-03-07T04:27:00.987Z,92864.16
2023-03-07T04:32:04.939Z,92861.75
2023-03-07T04:37:08.793Z,92857.41
2023-03-07T04:42:11.975Z,92850.28
2023-03-07T04:47:15.425Z,92863.81
2023-03-07T04:52:19.553Z,92860.94
2023-03-07T04:57:23.828Z,92860.94
2023-03-07T05:02:28.533Z,92864.50
2023-03-07T05:07:33.902Z,92853.53
2023-03-07T05:12:38.244Z,92853.69
2023-03-07T05:17:43.664Z,92864.69
2023-03-07T05:22:47.510Z,92871.47
2023-03-07T05:27:51.572Z,92882.84
2023-03-07T05:32:55.584Z,92876.31
2023-03-07T05:37:59.478Z,92866.19
2023-03-07T05:43:03.714Z,92879.56
2023-03-07T05:48:07.682Z,92881.22
2023-03-07T05:53:11.614Z,92892.34
2023-03-07T05:58:14.993Z,92890.22
2023-03-07T06:03:21.342Z,92903.56
2023-03-07T06:08:25.411Z,92913.34
2023-03-07T06:13:31.412Z,92904.03
2023-03-07T06:18:35.350Z,92915.78
2023-03-07T06:23:39.672Z,92911.16
2023-03-07T06:28:48.361Z,92915.97
2023-03-07T06:33:53.229Z,92932.78
2023-03-07T06:38:57.663Z,92932.50
2023-03-07T06:44:02.802Z,92934.88
2023-03-07T06:49:08.908Z,92955.63
2023-03-07T06:54:12.817Z,92949.53
2023-03-07T06:59:17.010Z,92945.78
2023-03-07T07:04:21.387Z,92956.63
2023-03-07T07:09:26.552Z,92955.91
2023-03-07T07:14:30.302Z,92980.22
2023-03-07T07:19:34.377Z,92973.81
2023-03-07T07:24:39.616Z,92957.75
2023-03-07T07:29:44.225Z,92958.38
2023-03-07T07:34:47.997Z,92961.63
2023-03-07T07:39:51.848Z,92961.19
2023-03-07T07:44:56.037Z,92975.66
2023-03-07T07:50:01.253Z,92970.72
2023-03-07T07:55:10.555Z,92975.94
2023-03-07T08:00:19.697Z,92969.22
2023-03-07T08:05:23.829Z,92982.69
2023-03-07T08:10:28.116Z,92994.06
2023-03-07T08:15:31.752Z,92987.75
2023-03-07T08:20:36.423Z,93000.63
2023-03-07T08:25:40.534Z,93004.22
2023-03-07T08:30:44.178Z,92993.81
2023-03-07T08:35:47.788Z,92988.69
2023-03-07T08:40:51.482Z,92991.44
2023-03-07T08:45:55.769Z,93000.75
2023-03-07T08:51:05.576Z,93006.06
2023-03-07T08:56:10.836Z,92991.69
2023-03-07T09:01:14.779Z,92995.03
2023-03-07T09:06:20.475Z,93007.78
2023-03-07T09:11:23.846Z,93012.59
2023-03-07T09:16:27.227Z,93010.00
2023-03-07T09:21:31.304Z,92998.56
2023-03-07T09:26:35.187Z,93005.97
2023-03-07T09:31:38.939Z,92997.66
2023-03-07T09:36:42.331Z,93007.91
2023-03-07T09:42:08.125Z,93020.88
2023-03-07T09:47:33.032Z,93028.94
2023-03-07T09:52:40.155Z,93009.78
2023-03-07T09:57:51.736Z,93023.06
2023-03-07T10:03:06.309Z,93024.38
2023-03-07T10:08:18.043Z,93034.31
2023-03-07T10:13:58.985Z,93037.34
2023-03-07T10:19:26.902Z,93046.38
2023-03-07T10:24:43.890Z,93041.94
2023-03-07T10:29:49.565Z,93038.53
2023-03-07T10:35:05.392Z,93035.88
2023-03-07T10:40:18.502Z,93036.69
2023-03-07T10:45:22.476Z,93027.94
2023-03-07T10:50:50.240Z,93032.31
2023-03-07T10:56:17.021Z,93036.28
2023-03-07T11:01:21.422Z,93034.31
2023-03-07T11:06:39.783Z,93032.75
2023-03-07T11:12:08.399Z,93028.00
2023-03-07T11:17:23.631Z,93008.22
2023-03-07T11:22:34.657Z,93006.13
2023-03-07T11:27:39.738Z,93008.72
2023-03-07T11:33:05.208Z,92975.63
2023-03-07T11:38:21.712Z,92999.81
2023-03-07T11:43:54.652Z,93005.75
2023-03-07T11:49:32.035Z,92990.84
2023-03-07T11:55:04.521Z,92993.38
2023-03-07T12:00:31.661Z,92985.56
2023-03-07T12:06:06.423Z,92988.44
2023-03-07T12:11:16.654Z,92995.31
2023-03-07T12:16:32.459Z,92995.72
2023-03-07T12:22:26.432Z,92998.44
2023-03-07T12:27:53.467Z,92987.75
2023-03-07T12:32:57.962Z,92982.94
2023-03-07T12:38:31.541Z,92986.00
2023-03-07T12:43:39.747Z,92970.41
2023-03-07T12:49:04.313Z,92986.13
2023-03-07T12:54:28.894Z,92980.59
2023-03-07T12:59:35.595Z,92970.66
2023-03-07T13:04:40.962Z,92978.34
2023-03-07T13:09:46.835Z,92961.41
2023-03-07T13:14:54.820Z,92972.00
2023-03-07T13:20:07.724Z,92972.50
2023-03-07T13:25:25.373Z,92973.81
2023-03-07T13:30:31.859Z,92971.66
2023-03-07T13:35:38.530Z,92973.50
2023-03-07T13:40:42.735Z,92984.75
2023-03-07T13:46:06.055Z,92988.63
2023-03-07T13:51:10.867Z,92994.09
2023-03-07T13:56:17.458Z,92988.91
2023-03-07T14:01:25.308Z,92981.25
2023-03-07T14:06:37.172Z,92990.91
2023-03-07T14:12:09.824Z,92978.28
2023-03-07T14:17:54.093Z,92961.97
2023-03-07T14:23:03.844Z,92969.34
2023-03-07T14:28:24.324Z,92968.22
2023-03-07T14:33:39.537Z,92972.25
2023-03-07T14:38:45.793Z,92966.06
2023-03-07T14:44:07.736Z,92973.84
2023-03-07T14:49:22.471Z,92974.00
2023-03-07T14:54:31.368Z,92961.75
2023-03-07T14:59:35.328Z,92977.84
2023-03-07T15:04:40.270Z,92990.03
2023-03-07T15:09:43.514Z,92982.78
2023-03-07T15:14:54.390Z,92982.81
2023-03-07T15:20:03.440Z,93001.41
2023-03-07T15:25:17.708Z,93005.00
2023-03-07T15:30:28.336Z,92995.53
2023-03-07T15:35:32.646Z,93002.72
2023-03-07T15:40:37.489Z,92988.69
2023-03-07T15:45:43.532Z,93002.94
2023-03-07T15:50:56.733Z,93005.00
2023-03-07T15:56:07.441Z,93011.09
2023-03-07T16:01:23.613Z,93020.06
2023-03-07T16:06:47.126Z,93019.34
2023-03-07T16:11:51.127Z,93018.16
2023-03-07T16:16:56.993Z,93027.47
2023-03-07T16:22:00.231Z,93036.47
2023-03-07T16:27:03.510Z,93019.38
2023-03-07T16:32:07.212Z,93028.03
2023-03-07T16:37:11.422Z,93032.31
2023-03-07T16:42:23.298Z,93031.94
2023-03-07T16:47:27.115Z,93040.88
2023-03-07T16:52:30.489Z,93051.41
2023-03-07T16:57:34.631Z,93054.50
2023-03-07T17:02:37.868Z,93049.75
2023-03-07T17:07:41.978Z,93055.81
2023-03-07T17:12:46.556Z,93062.53
2023-03-07T17:17:50.334Z,93054.91
2023-03-07T17:22:54.254Z,93067.84
2023-03-07T17:28:03.275Z,93075.72
2023-03-07T17:33:07.421Z,93081.91
2023-03-07T17:38:10.830Z,93073.75
2023-03-07T17:43:14.776Z,93084.25
2023-03-07T17:48:18.296Z,93096.09
2023-03-07T17:53:21.580Z,93102.25
2023-03-07T17:58:24.784Z,93120.38
2023-03-07T18:03:28.290Z,93116.47
2023-03-07T18:08:32.378Z,93132.25
2023-03-07T18:13:36.347Z,93144.44
2023-03-07T18:18:57.710Z,93154.00
2023-03-07T18:24:03.579Z,93149.84
2023-03-07T18:29:06.830Z,93150.97
2023-03-07T18:34:10.907Z,93152.31
2023-03-07T18:39:14.358Z,93157.53
2023-03-07T18:44:18.975Z,93144.06
2023-03-07T18:49:22.303Z,93170.16
2023-03-07T18:54:25.668Z,93159.19
2023-03-07T18:59:29.177Z,93172.41
2023-03-07T19:04:32.758Z,93173.91
2023-03-07T19:09:35.918Z,93177.94
2023-03-07T19:14:39.961Z,93184.50
2023-03-07T19:19:43.673Z,93189.69
2023-03-07T19:24:47.892Z,93195.03
2023-03-07T19:29:53.647Z,93184.06
2023-03-07T19:34:56.911Z,93191.53
2023-03-07T19:40:00.599Z,93194.25
2023-03-07T19:45:06.141Z,93199.31
2023-03-07T19:50:10.461Z,93192.09
2023-03-07T19:55:15.047Z,93191.09
2023-03-07T20:00:20.484Z,93194.91
2023-03-07T20:05:24.289Z,93197.69
2023-03-07T20:10:27.582Z,93183.19
2023-03-07T20:15:31.140Z,93202.22
2023-03-07T20:20:37.575Z,93197.19
2023-03-07T20:25:41.194Z,93203.22
2023-03-07T20:30:44.839Z,93207.72
2023-03-07T20:35:48.186Z,93211.47
2023-03-07T20:41:00.685Z,93184.31
2023-03-07T20:46:12.666Z,93226.06
2023-03-07T20:51:21.498Z,93223.03
2023-03-07T20:56:27.491Z,93231.66
2023-03-07T21:01:32.486Z,93227.84
2023-03-07T21:06:37.750Z,93219.22
2023-03-07T21:11:47.731Z,93231.69
2023-03-07T21:16:51.274Z,93216.28
2023-03-07T21:21:54.588Z,93221.06
2023-03-07T21:26:58.599Z,93229.34
2023-03-07T21:32:02.212Z,93240.50
2023-03-07T21:37:05.806Z,93250.81
2023-03-07T21:42:09.053Z,93237.69
2023-03-07T21:47:13.458Z,93236.31
2023-03-07T21:52:16.612Z,93252.44
2023-03-07T21:57:19.750Z,93250.53
2023-03-07T22:02:23.869Z,93237.22
2023-03-07T22:07:27.691Z,93235.97
2023-03-07T22:12:31.970Z,93222.63
2023-03-07T22:17:35.670Z,93209.78
2023-03-07T22:22:39.739Z,93203.22
2023-03-07T22:27:45.523Z,93205.81
2023-03-07T22:32:49.844Z,93190.06
2023-03-07T22:37:53.846Z,93187.66
2023-03-07T22:42:57.188Z,93196.34
2023-03-07T22:48:01.296Z,93185.78
2023-03-07T22:53:04.881Z,93196.56
2023-03-07T22:58:08.026Z,93189.13
2023-03-07T23:03:12.509Z,93184.81
2023-03-07T23:08:17.033Z,93172.41
2023-03-07T23:13:20.666Z,93174.44
2023-03-07T23:18:24.241Z,93171.06
2023-03-07T23:23:27.313Z,93188.88
2023-03-07T23:28:30.520Z,93197.81
2023-03-07T23:33:34.408Z,93212.25
2023-03-07T23:38:38.254Z,93196.50
2023-03-07T23:43:42.076Z,93198.03
2023-03-07T23:48:45.284Z,93201.63
2023-03-07T23:53:48.655Z,93201.44
2023-03-07T23:58:52.795Z,93207.91
